sensor_id;sensor_type;location;lat;lon;timestamp;P1;durP1;ratioP1;P2;durP2;ratioP2
77868;SDS011;67231;59.144;37.934;2023-07-08T00:02:12;25.13;;;13.90;;
77868;SDS011;67231;59.144;37.934;2023-07-08T00:04:39;26.85;;;14.73;;
77868;SDS011;67231;59.144;37.934;2023-07-08T00:07:08;28.15;;;16.02;;
77868;SDS011;67231;59.144;37.934;2023-07-08T00:09:37;26.98;;;15.50;;
77868;SDS011;67231;59.144;37.934;2023-07-08T00:12:08;28.58;;;15.63;;
77868;SDS011;67231;59.144;37.934;2023-07-08T00:14:35;28.30;;;16.55;;
77868;SDS011;67231;59.144;37.934;2023-07-08T00:17:02;32.50;;;16.73;;
77868;SDS011;67231;59.144;37.934;2023-07-08T00:19:28;27.80;;;15.38;;
77868;SDS011;67231;59.144;37.934;2023-07-08T00:21:54;27.30;;;14.93;;
77868;SDS011;67231;59.144;37.934;2023-07-08T00:24:20;25.25;;;15.82;;
77868;SDS011;67231;59.144;37.934;2023-07-08T00:26:47;26.45;;;14.02;;
77868;SDS011;67231;59.144;37.934;2023-07-08T00:29:13;25.27;;;15.18;;
77868;SDS011;67231;59.144;37.934;2023-07-08T00:31:42;25.55;;;15.52;;
77868;SDS011;67231;59.144;37.934;2023-07-08T00:34:08;24.33;;;14.52;;
77868;SDS011;67231;59.144;37.934;2023-07-08T00:36:34;31.50;;;15.90;;
77868;SDS011;67231;59.144;37.934;2023-07-08T00:39:01;33.70;;;17.92;;
77868;SDS011;67231;59.144;37.934;2023-07-08T00:41:32;36.25;;;18.90;;
77868;SDS011;67231;59.144;37.934;2023-07-08T00:44:00;47.00;;;23.25;;
77868;SDS011;67231;59.144;37.934;2023-07-08T00:48:56;50.78;;;23.23;;
77868;SDS011;67231;59.144;37.934;2023-07-08T00:51:29;59.50;;;26.27;;
77868;SDS011;67231;59.144;37.934;2023-07-08T00:53:55;54.78;;;25.15;;
77868;SDS011;67231;59.144;37.934;2023-07-08T00:56:43;56.60;;;25.30;;
77868;SDS011;67231;59.144;37.934;2023-07-08T00:59:11;48.60;;;22.25;;
77868;SDS011;67231;59.144;37.934;2023-07-08T01:01:52;57.47;;;25.70;;
77868;SDS011;67231;59.144;37.934;2023-07-08T01:04:24;81.35;;;31.88;;
77868;SDS011;67231;59.144;37.934;2023-07-08T01:06:57;62.45;;;28.30;;
77868;SDS011;67231;59.144;37.934;2023-07-08T01:09:33;62.78;;;29.95;;
77868;SDS011;67231;59.144;37.934;2023-07-08T01:12:08;51.83;;;22.10;;
77868;SDS011;67231;59.144;37.934;2023-07-08T01:14:41;61.17;;;26.30;;
77868;SDS011;67231;59.144;37.934;2023-07-08T01:17:09;66.00;;;27.25;;
77868;SDS011;67231;59.144;37.934;2023-07-08T01:19:41;63.53;;;29.35;;
77868;SDS011;67231;59.144;37.934;2023-07-08T01:22:08;61.30;;;26.88;;
77868;SDS011;67231;59.144;37.934;2023-07-08T01:24:36;49.85;;;21.27;;
77868;SDS011;67231;59.144;37.934;2023-07-08T01:29:32;42.65;;;21.00;;
77868;SDS011;67231;59.144;37.934;2023-07-08T01:32:00;41.58;;;20.13;;
77868;SDS011;67231;59.144;37.934;2023-07-08T01:34:29;33.58;;;18.92;;
77868;SDS011;67231;59.144;37.934;2023-07-08T01:36:57;29.98;;;17.27;;
77868;SDS011;67231;59.144;37.934;2023-07-08T01:39:26;32.65;;;18.08;;
77868;SDS011;67231;59.144;37.934;2023-07-08T01:41:55;27.35;;;15.60;;
77868;SDS011;67231;59.144;37.934;2023-07-08T01:44:22;23.08;;;13.80;;
77868;SDS011;67231;59.144;37.934;2023-07-08T01:46:55;20.17;;;12.07;;
77868;SDS011;67231;59.144;37.934;2023-07-08T01:49:33;19.50;;;9.75;;
77868;SDS011;67231;59.144;37.934;2023-07-08T01:52:02;13.07;;;9.25;;
77868;SDS011;67231;59.144;37.934;2023-07-08T01:54:29;13.13;;;8.88;;
77868;SDS011;67231;59.144;37.934;2023-07-08T01:56:56;14.15;;;9.38;;
77868;SDS011;67231;59.144;37.934;2023-07-08T01:59:23;14.18;;;8.82;;
77868;SDS011;67231;59.144;37.934;2023-07-08T02:01:50;13.52;;;8.77;;
77868;SDS011;67231;59.144;37.934;2023-07-08T02:04:20;13.98;;;8.82;;
77868;SDS011;67231;59.144;37.934;2023-07-08T02:06:54;14.57;;;9.93;;
77868;SDS011;67231;59.144;37.934;2023-07-08T02:09:22;13.38;;;8.43;;
77868;SDS011;67231;59.144;37.934;2023-07-08T02:11:49;13.65;;;8.90;;
77868;SDS011;67231;59.144;37.934;2023-07-08T02:14:15;13.18;;;8.52;;
77868;SDS011;67231;59.144;37.934;2023-07-08T02:16:41;13.93;;;8.90;;
77868;SDS011;67231;59.144;37.934;2023-07-08T02:19:08;12.95;;;9.02;;
77868;SDS011;67231;59.144;37.934;2023-07-08T02:21:35;11.30;;;8.45;;
77868;SDS011;67231;59.144;37.934;2023-07-08T02:24:03;12.38;;;8.32;;
77868;SDS011;67231;59.144;37.934;2023-07-08T02:26:29;13.20;;;8.20;;
77868;SDS011;67231;59.144;37.934;2023-07-08T02:28:58;12.48;;;8.65;;
77868;SDS011;67231;59.144;37.934;2023-07-08T02:31:24;13.73;;;9.30;;
77868;SDS011;67231;59.144;37.934;2023-07-08T02:33:52;17.45;;;11.02;;
77868;SDS011;67231;59.144;37.934;2023-07-08T02:36:19;13.55;;;9.35;;
77868;SDS011;67231;59.144;37.934;2023-07-08T02:38:45;14.65;;;9.00;;
77868;SDS011;67231;59.144;37.934;2023-07-08T02:41:12;16.02;;;10.30;;
77868;SDS011;67231;59.144;37.934;2023-07-08T02:43:38;17.75;;;11.25;;
77868;SDS011;67231;59.144;37.934;2023-07-08T02:46:05;18.05;;;11.07;;
77868;SDS011;67231;59.144;37.934;2023-07-08T02:48:31;15.32;;;9.70;;
77868;SDS011;67231;59.144;37.934;2023-07-08T02:51:01;17.33;;;11.20;;
77868;SDS011;67231;59.144;37.934;2023-07-08T02:53:29;17.83;;;10.82;;
77868;SDS011;67231;59.144;37.934;2023-07-08T02:55:55;18.30;;;11.35;;
77868;SDS011;67231;59.144;37.934;2023-07-08T02:58:22;16.02;;;11.07;;
77868;SDS011;67231;59.144;37.934;2023-07-08T03:00:55;16.88;;;10.95;;
77868;SDS011;67231;59.144;37.934;2023-07-08T03:03:25;15.95;;;10.40;;
77868;SDS011;67231;59.144;37.934;2023-07-08T03:05:55;16.17;;;9.65;;
77868;SDS011;67231;59.144;37.934;2023-07-08T03:08:34;14.40;;;10.05;;
77868;SDS011;67231;59.144;37.934;2023-07-08T03:11:01;17.58;;;10.18;;
77868;SDS011;67231;59.144;37.934;2023-07-08T03:13:30;14.35;;;9.77;;
77868;SDS011;67231;59.144;37.934;2023-07-08T03:15:58;14.52;;;8.98;;
77868;SDS011;67231;59.144;37.934;2023-07-08T03:18:25;15.10;;;9.75;;
77868;SDS011;67231;59.144;37.934;2023-07-08T03:20:54;13.65;;;9.30;;
77868;SDS011;67231;59.144;37.934;2023-07-08T03:23:22;13.32;;;8.93;;
77868;SDS011;67231;59.144;37.934;2023-07-08T03:25:51;13.68;;;8.48;;
77868;SDS011;67231;59.144;37.934;2023-07-08T03:28:18;12.25;;;8.65;;
77868;SDS011;67231;59.144;37.934;2023-07-08T03:30:45;10.43;;;7.22;;
77868;SDS011;67231;59.144;37.934;2023-07-08T03:33:17;13.90;;;9.15;;
77868;SDS011;67231;59.144;37.934;2023-07-08T03:35:44;13.35;;;8.30;;
77868;SDS011;67231;59.144;37.934;2023-07-08T03:38:11;11.55;;;8.80;;
77868;SDS011;67231;59.144;37.934;2023-07-08T03:40:37;14.77;;;9.07;;
77868;SDS011;67231;59.144;37.934;2023-07-08T03:43:03;17.85;;;9.70;;
77868;SDS011;67231;59.144;37.934;2023-07-08T03:45:30;16.38;;;9.07;;
77868;SDS011;67231;59.144;37.934;2023-07-08T03:47:57;16.92;;;10.20;;
77868;SDS011;67231;59.144;37.934;2023-07-08T03:50:24;15.23;;;9.55;;
77868;SDS011;67231;59.144;37.934;2023-07-08T03:52:52;12.60;;;8.40;;
77868;SDS011;67231;59.144;37.934;2023-07-08T03:55:21;12.80;;;7.75;;
77868;SDS011;67231;59.144;37.934;2023-07-08T03:57:48;10.88;;;6.90;;
77868;SDS011;67231;59.144;37.934;2023-07-08T04:00:16;11.07;;;7.43;;
77868;SDS011;67231;59.144;37.934;2023-07-08T04:02:42;11.93;;;7.50;;
77868;SDS011;67231;59.144;37.934;2023-07-08T04:05:20;11.38;;;6.78;;
77868;SDS011;67231;59.144;37.934;2023-07-08T04:07:48;11.13;;;6.07;;
77868;SDS011;67231;59.144;37.934;2023-07-08T04:10:15;9.73;;;6.95;;
77868;SDS011;67231;59.144;37.934;2023-07-08T04:12:42;10.52;;;6.70;;
77868;SDS011;67231;59.144;37.934;2023-07-08T04:15:09;13.27;;;6.20;;
77868;SDS011;67231;59.144;37.934;2023-07-08T04:17:37;8.60;;;6.43;;
77868;SDS011;67231;59.144;37.934;2023-07-08T04:20:09;16.45;;;6.47;;
77868;SDS011;67231;59.144;37.934;2023-07-08T04:22:37;10.73;;;5.88;;
77868;SDS011;67231;59.144;37.934;2023-07-08T04:25:03;9.00;;;6.15;;
77868;SDS011;67231;59.144;37.934;2023-07-08T04:27:30;10.38;;;7.00;;
77868;SDS011;67231;59.144;37.934;2023-07-08T04:29:56;11.63;;;6.50;;
77868;SDS011;67231;59.144;37.934;2023-07-08T04:32:23;9.68;;;6.30;;
77868;SDS011;67231;59.144;37.934;2023-07-08T04:34:51;9.98;;;6.07;;
77868;SDS011;67231;59.144;37.934;2023-07-08T04:37:18;10.23;;;6.20;;
77868;SDS011;67231;59.144;37.934;2023-07-08T04:39:47;8.57;;;6.65;;
77868;SDS011;67231;59.144;37.934;2023-07-08T04:42:14;10.02;;;6.18;;
77868;SDS011;67231;59.144;37.934;2023-07-08T04:44:43;7.75;;;6.05;;
77868;SDS011;67231;59.144;37.934;2023-07-08T04:47:10;9.38;;;5.90;;
77868;SDS011;67231;59.144;37.934;2023-07-08T04:49:38;9.88;;;6.20;;
77868;SDS011;67231;59.144;37.934;2023-07-08T04:52:06;11.98;;;5.82;;
77868;SDS011;67231;59.144;37.934;2023-07-08T04:54:33;9.13;;;6.10;;
77868;SDS011;67231;59.144;37.934;2023-07-08T04:56:59;9.90;;;4.70;;
77868;SDS011;67231;59.144;37.934;2023-07-08T04:59:25;8.65;;;5.45;;
77868;SDS011;67231;59.144;37.934;2023-07-08T05:01:52;10.77;;;5.72;;
77868;SDS011;67231;59.144;37.934;2023-07-08T05:04:19;11.18;;;5.72;;
77868;SDS011;67231;59.144;37.934;2023-07-08T05:06:48;11.88;;;6.32;;
77868;SDS011;67231;59.144;37.934;2023-07-08T05:09:14;8.65;;;6.22;;
77868;SDS011;67231;59.144;37.934;2023-07-08T05:11:40;10.77;;;6.60;;
77868;SDS011;67231;59.144;37.934;2023-07-08T05:14:07;9.25;;;6.50;;
77868;SDS011;67231;59.144;37.934;2023-07-08T05:16:34;9.40;;;6.72;;
77868;SDS011;67231;59.144;37.934;2023-07-08T05:19:02;8.55;;;6.13;;
77868;SDS011;67231;59.144;37.934;2023-07-08T05:21:29;8.43;;;5.70;;
77868;SDS011;67231;59.144;37.934;2023-07-08T05:24:02;9.05;;;6.30;;
77868;SDS011;67231;59.144;37.934;2023-07-08T05:26:30;7.78;;;5.60;;
77868;SDS011;67231;59.144;37.934;2023-07-08T05:28:57;10.65;;;5.75;;
77868;SDS011;67231;59.144;37.934;2023-07-08T05:31:23;7.72;;;5.72;;
77868;SDS011;67231;59.144;37.934;2023-07-08T05:33:50;9.30;;;5.97;;
77868;SDS011;67231;59.144;37.934;2023-07-08T05:36:16;7.38;;;5.25;;
77868;SDS011;67231;59.144;37.934;2023-07-08T05:38:42;9.45;;;6.07;;
77868;SDS011;67231;59.144;37.934;2023-07-08T05:41:09;7.63;;;5.65;;
77868;SDS011;67231;59.144;37.934;2023-07-08T05:43:35;9.40;;;6.07;;
77868;SDS011;67231;59.144;37.934;2023-07-08T05:46:01;9.68;;;6.25;;
77868;SDS011;67231;59.144;37.934;2023-07-08T05:48:28;11.45;;;6.30;;
77868;SDS011;67231;59.144;37.934;2023-07-08T05:50:55;10.55;;;6.38;;
77868;SDS011;67231;59.144;37.934;2023-07-08T05:53:21;9.55;;;6.97;;
77868;SDS011;67231;59.144;37.934;2023-07-08T05:55:48;7.72;;;6.25;;
77868;SDS011;67231;59.144;37.934;2023-07-08T05:58:15;8.60;;;6.30;;
77868;SDS011;67231;59.144;37.934;2023-07-08T06:00:42;9.73;;;7.30;;
77868;SDS011;67231;59.144;37.934;2023-07-08T06:03:09;11.18;;;6.85;;
77868;SDS011;67231;59.144;37.934;2023-07-08T06:05:37;10.30;;;7.57;;
77868;SDS011;67231;59.144;37.934;2023-07-08T06:08:05;10.45;;;7.15;;
77868;SDS011;67231;59.144;37.934;2023-07-08T06:10:32;10.32;;;6.70;;
77868;SDS011;67231;59.144;37.934;2023-07-08T06:12:58;9.70;;;6.40;;
77868;SDS011;67231;59.144;37.934;2023-07-08T06:15:24;9.43;;;6.07;;
77868;SDS011;67231;59.144;37.934;2023-07-08T06:17:50;9.43;;;5.95;;
77868;SDS011;67231;59.144;37.934;2023-07-08T06:20:17;10.38;;;6.15;;
77868;SDS011;67231;59.144;37.934;2023-07-08T06:22:43;11.80;;;6.35;;
77868;SDS011;67231;59.144;37.934;2023-07-08T06:25:09;9.77;;;6.05;;
77868;SDS011;67231;59.144;37.934;2023-07-08T06:27:36;11.13;;;6.88;;
77868;SDS011;67231;59.144;37.934;2023-07-08T06:30:02;10.07;;;6.22;;
77868;SDS011;67231;59.144;37.934;2023-07-08T06:32:30;8.98;;;6.30;;
77868;SDS011;67231;59.144;37.934;2023-07-08T06:34:57;17.63;;;8.05;;
77868;SDS011;67231;59.144;37.934;2023-07-08T06:37:23;14.25;;;7.88;;
77868;SDS011;67231;59.144;37.934;2023-07-08T06:39:49;15.48;;;9.18;;
77868;SDS011;67231;59.144;37.934;2023-07-08T06:42:16;16.52;;;9.00;;
77868;SDS011;67231;59.144;37.934;2023-07-08T06:44:50;13.48;;;7.78;;
77868;SDS011;67231;59.144;37.934;2023-07-08T06:47:17;10.82;;;5.85;;
77868;SDS011;67231;59.144;37.934;2023-07-08T06:49:44;10.88;;;6.60;;
77868;SDS011;67231;59.144;37.934;2023-07-08T06:52:10;11.15;;;6.30;;
77868;SDS011;67231;59.144;37.934;2023-07-08T06:54:36;9.27;;;5.28;;
77868;SDS011;67231;59.144;37.934;2023-07-08T06:57:03;14.52;;;9.20;;
77868;SDS011;67231;59.144;37.934;2023-07-08T06:59:29;9.48;;;6.10;;
77868;SDS011;67231;59.144;37.934;2023-07-08T07:01:55;8.88;;;5.25;;
77868;SDS011;67231;59.144;37.934;2023-07-08T07:04:22;11.23;;;6.40;;
77868;SDS011;67231;59.144;37.934;2023-07-08T07:06:48;7.45;;;5.20;;
77868;SDS011;67231;59.144;37.934;2023-07-08T07:09:14;11.80;;;6.93;;
77868;SDS011;67231;59.144;37.934;2023-07-08T07:11:40;11.95;;;6.43;;
77868;SDS011;67231;59.144;37.934;2023-07-08T07:14:07;8.75;;;6.13;;
77868;SDS011;67231;59.144;37.934;2023-07-08T07:16:33;11.40;;;6.28;;
77868;SDS011;67231;59.144;37.934;2023-07-08T07:18:59;10.25;;;6.22;;
77868;SDS011;67231;59.144;37.934;2023-07-08T07:21:27;8.50;;;6.05;;
77868;SDS011;67231;59.144;37.934;2023-07-08T07:23:54;11.55;;;6.47;;
77868;SDS011;67231;59.144;37.934;2023-07-08T07:26:20;9.95;;;6.50;;
77868;SDS011;67231;59.144;37.934;2023-07-08T07:28:46;10.02;;;6.45;;
77868;SDS011;67231;59.144;37.934;2023-07-08T07:31:12;9.88;;;6.18;;
77868;SDS011;67231;59.144;37.934;2023-07-08T07:33:38;9.68;;;6.10;;
77868;SDS011;67231;59.144;37.934;2023-07-08T07:36:05;8.93;;;5.95;;
77868;SDS011;67231;59.144;37.934;2023-07-08T07:38:33;9.00;;;6.15;;
77868;SDS011;67231;59.144;37.934;2023-07-08T07:41:02;12.20;;;6.28;;
77868;SDS011;67231;59.144;37.934;2023-07-08T07:43:32;10.35;;;6.38;;
77868;SDS011;67231;59.144;37.934;2023-07-08T07:45:59;7.97;;;5.70;;
77868;SDS011;67231;59.144;37.934;2023-07-08T07:48:26;10.32;;;5.97;;
77868;SDS011;67231;59.144;37.934;2023-07-08T07:50:52;9.90;;;6.20;;
77868;SDS011;67231;59.144;37.934;2023-07-08T07:53:18;9.20;;;5.53;;
77868;SDS011;67231;59.144;37.934;2023-07-08T07:55:44;8.70;;;5.80;;
77868;SDS011;67231;59.144;37.934;2023-07-08T07:58:11;10.93;;;6.78;;
77868;SDS011;67231;59.144;37.934;2023-07-08T08:00:38;10.55;;;6.57;;
77868;SDS011;67231;59.144;37.934;2023-07-08T08:03:05;9.88;;;7.45;;
77868;SDS011;67231;59.144;37.934;2023-07-08T08:05:31;13.02;;;7.15;;
77868;SDS011;67231;59.144;37.934;2023-07-08T08:07:57;7.80;;;5.40;;
77868;SDS011;67231;59.144;37.934;2023-07-08T08:10:24;9.32;;;5.85;;
77868;SDS011;67231;59.144;37.934;2023-07-08T08:12:50;10.05;;;6.63;;
77868;SDS011;67231;59.144;37.934;2023-07-08T08:15:20;12.60;;;6.85;;
77868;SDS011;67231;59.144;37.934;2023-07-08T08:17:49;11.50;;;6.60;;
77868;SDS011;67231;59.144;37.934;2023-07-08T08:20:22;15.95;;;7.53;;
77868;SDS011;67231;59.144;37.934;2023-07-08T08:22:51;14.18;;;7.30;;
77868;SDS011;67231;59.144;37.934;2023-07-08T08:25:18;12.63;;;8.02;;
77868;SDS011;67231;59.144;37.934;2023-07-08T08:30:12;12.02;;;6.82;;
77868;SDS011;67231;59.144;37.934;2023-07-08T08:32:39;26.00;;;10.05;;
77868;SDS011;67231;59.144;37.934;2023-07-08T08:35:05;15.98;;;8.52;;
77868;SDS011;67231;59.144;37.934;2023-07-08T08:37:31;30.42;;;14.40;;
77868;SDS011;67231;59.144;37.934;2023-07-08T08:39:58;41.00;;;13.63;;
77868;SDS011;67231;59.144;37.934;2023-07-08T08:44:53;67.80;;;11.98;;
77868;SDS011;67231;59.144;37.934;2023-07-08T08:47:35;24.95;;;8.60;;
77868;SDS011;67231;59.144;37.934;2023-07-08T08:52:42;29.40;;;9.48;;
77868;SDS011;67231;59.144;37.934;2023-07-08T08:55:13;47.70;;;10.57;;
77868;SDS011;67231;59.144;37.934;2023-07-08T08:57:42;33.03;;;9.20;;
77868;SDS011;67231;59.144;37.934;2023-07-08T09:00:58;41.05;;;10.38;;
77868;SDS011;67231;59.144;37.934;2023-07-08T09:03:33;30.13;;;8.65;;
77868;SDS011;67231;59.144;37.934;2023-07-08T09:06:07;70.90;;;10.23;;
77868;SDS011;67231;59.144;37.934;2023-07-08T09:08:36;16.60;;;7.72;;
77868;SDS011;67231;59.144;37.934;2023-07-08T09:14:09;17.45;;;6.60;;
77868;SDS011;67231;59.144;37.934;2023-07-08T09:19:25;16.98;;;8.40;;
77868;SDS011;67231;59.144;37.934;2023-07-08T09:21:59;17.75;;;11.60;;
77868;SDS011;67231;59.144;37.934;2023-07-08T09:27:08;16.42;;;8.43;;
77868;SDS011;67231;59.144;37.934;2023-07-08T09:29:35;15.40;;;6.35;;
77868;SDS011;67231;59.144;37.934;2023-07-08T09:32:11;15.52;;;6.50;;
77868;SDS011;67231;59.144;37.934;2023-07-08T09:34:43;21.05;;;9.98;;
77868;SDS011;67231;59.144;37.934;2023-07-08T09:37:26;22.35;;;10.15;;
77868;SDS011;67231;59.144;37.934;2023-07-08T09:39:55;27.02;;;11.02;;
77868;SDS011;67231;59.144;37.934;2023-07-08T09:42:25;17.30;;;8.43;;
77868;SDS011;67231;59.144;37.934;2023-07-08T09:44:55;17.75;;;8.77;;
77868;SDS011;67231;59.144;37.934;2023-07-08T09:47:28;20.52;;;8.65;;
77868;SDS011;67231;59.144;37.934;2023-07-08T09:49:59;10.57;;;6.15;;
77868;SDS011;67231;59.144;37.934;2023-07-08T09:52:28;12.25;;;6.80;;
77868;SDS011;67231;59.144;37.934;2023-07-08T09:54:55;11.75;;;6.38;;
77868;SDS011;67231;59.144;37.934;2023-07-08T09:59:56;8.35;;;6.00;;
77868;SDS011;67231;59.144;37.934;2023-07-08T10:02:29;11.52;;;6.00;;
77868;SDS011;67231;59.144;37.934;2023-07-08T10:05:07;12.38;;;6.68;;
77868;SDS011;67231;59.144;37.934;2023-07-08T10:07:48;16.08;;;7.70;;
77868;SDS011;67231;59.144;37.934;2023-07-08T10:10:22;15.32;;;7.10;;
77868;SDS011;67231;59.144;37.934;2023-07-08T10:12:55;16.20;;;6.78;;
77868;SDS011;67231;59.144;37.934;2023-07-08T10:18:09;11.30;;;5.90;;
77868;SDS011;67231;59.144;37.934;2023-07-08T10:26:00;17.00;;;10.50;;
77868;SDS011;67231;59.144;37.934;2023-07-08T10:28:53;22.52;;;9.52;;
77868;SDS011;67231;59.144;37.934;2023-07-08T10:32:22;17.08;;;7.28;;
77868;SDS011;67231;59.144;37.934;2023-07-08T10:34:31;13.30;;;6.10;;
77868;SDS011;67231;59.144;37.934;2023-07-08T10:48:29;19.88;;;7.80;;
77868;SDS011;67231;59.144;37.934;2023-07-08T10:51:34;12.00;;;5.97;;
77868;SDS011;67231;59.144;37.934;2023-07-08T10:59:37;22.35;;;9.18;;
77868;SDS011;67231;59.144;37.934;2023-07-08T11:04:58;8.48;;;5.05;;
77868;SDS011;67231;59.144;37.934;2023-07-08T11:10:17;21.17;;;11.38;;
77868;SDS011;67231;59.144;37.934;2023-07-08T11:12:57;18.02;;;11.23;;
77868;SDS011;67231;59.144;37.934;2023-07-08T11:15:28;14.55;;;5.78;;
77868;SDS011;67231;59.144;37.934;2023-07-08T11:18:09;13.90;;;5.53;;
77868;SDS011;67231;59.144;37.934;2023-07-08T11:20:42;6.78;;;3.85;;
77868;SDS011;67231;59.144;37.934;2023-07-08T11:25:54;19.90;;;8.52;;
77868;SDS011;67231;59.144;37.934;2023-07-08T11:28:33;16.85;;;6.35;;
77868;SDS011;67231;59.144;37.934;2023-07-08T11:31:00;14.88;;;6.43;;
77868;SDS011;67231;59.144;37.934;2023-07-08T11:33:27;12.07;;;5.60;;
77868;SDS011;67231;59.144;37.934;2023-07-08T11:35:55;8.13;;;4.90;;
77868;SDS011;67231;59.144;37.934;2023-07-08T11:38:25;16.63;;;7.55;;
77868;SDS011;67231;59.144;37.934;2023-07-08T11:41:14;7.32;;;4.35;;
77868;SDS011;67231;59.144;37.934;2023-07-08T11:43:47;10.75;;;5.28;;
77868;SDS011;67231;59.144;37.934;2023-07-08T11:46:20;6.63;;;4.28;;
77868;SDS011;67231;59.144;37.934;2023-07-08T11:48:51;10.48;;;4.10;;
77868;SDS011;67231;59.144;37.934;2023-07-08T11:51:19;8.55;;;4.25;;
77868;SDS011;67231;59.144;37.934;2023-07-08T11:53:50;7.65;;;3.90;;
77868;SDS011;67231;59.144;37.934;2023-07-08T11:56:28;17.77;;;4.82;;
77868;SDS011;67231;59.144;37.934;2023-07-08T11:59:08;9.48;;;4.00;;
77868;SDS011;67231;59.144;37.934;2023-07-08T12:01:39;97.28;;;9.63;;
77868;SDS011;67231;59.144;37.934;2023-07-08T12:11:53;12.05;;;4.70;;
77868;SDS011;67231;59.144;37.934;2023-07-08T12:14:22;11.93;;;4.13;;
77868;SDS011;67231;59.144;37.934;2023-07-08T12:16:49;37.05;;;5.75;;
77868;SDS011;67231;59.144;37.934;2023-07-08T12:19:16;8.70;;;4.03;;
77868;SDS011;67231;59.144;37.934;2023-07-08T12:24:11;15.35;;;3.88;;
77868;SDS011;67231;59.144;37.934;2023-07-08T12:26:39;6.72;;;2.90;;
77868;SDS011;67231;59.144;37.934;2023-07-08T12:29:11;7.93;;;3.33;;
77868;SDS011;67231;59.144;37.934;2023-07-08T12:31:41;5.40;;;2.88;;
77868;SDS011;67231;59.144;37.934;2023-07-08T12:34:13;6.30;;;3.20;;
77868;SDS011;67231;59.144;37.934;2023-07-08T12:36:43;5.05;;;2.88;;
77868;SDS011;67231;59.144;37.934;2023-07-08T12:39:11;4.95;;;2.80;;
77868;SDS011;67231;59.144;37.934;2023-07-08T12:41:41;7.40;;;3.00;;
77868;SDS011;67231;59.144;37.934;2023-07-08T12:44:17;4.07;;;2.70;;
77868;SDS011;67231;59.144;37.934;2023-07-08T12:46:46;7.43;;;2.75;;
77868;SDS011;67231;59.144;37.934;2023-07-08T12:49:15;6.97;;;3.10;;
77868;SDS011;67231;59.144;37.934;2023-07-08T12:51:45;7.18;;;3.88;;
77868;SDS011;67231;59.144;37.934;2023-07-08T12:54:12;20.63;;;3.95;;
77868;SDS011;67231;59.144;37.934;2023-07-08T12:56:40;8.30;;;3.30;;
77868;SDS011;67231;59.144;37.934;2023-07-08T12:59:11;10.75;;;3.28;;
77868;SDS011;67231;59.144;37.934;2023-07-08T13:01:43;8.70;;;3.15;;
77868;SDS011;67231;59.144;37.934;2023-07-08T13:04:12;5.88;;;2.75;;
77868;SDS011;67231;59.144;37.934;2023-07-08T13:06:40;5.35;;;2.72;;
77868;SDS011;67231;59.144;37.934;2023-07-08T13:11:53;7.90;;;3.03;;
77868;SDS011;67231;59.144;37.934;2023-07-08T13:14:22;4.30;;;2.40;;
77868;SDS011;67231;59.144;37.934;2023-07-08T13:16:49;8.38;;;3.80;;
77868;SDS011;67231;59.144;37.934;2023-07-08T13:19:16;11.45;;;4.10;;
77868;SDS011;67231;59.144;37.934;2023-07-08T13:21:47;10.57;;;3.88;;
77868;SDS011;67231;59.144;37.934;2023-07-08T13:24:14;8.00;;;3.00;;
77868;SDS011;67231;59.144;37.934;2023-07-08T13:26:44;37.15;;;4.32;;
77868;SDS011;67231;59.144;37.934;2023-07-08T13:29:16;7.07;;;3.00;;
77868;SDS011;67231;59.144;37.934;2023-07-08T13:31:47;10.82;;;3.10;;
77868;SDS011;67231;59.144;37.934;2023-07-08T13:34:16;4.00;;;2.28;;
77868;SDS011;67231;59.144;37.934;2023-07-08T13:36:45;9.65;;;2.53;;
77868;SDS011;67231;59.144;37.934;2023-07-08T13:39:17;5.57;;;2.50;;
77868;SDS011;67231;59.144;37.934;2023-07-08T13:41:49;4.00;;;2.22;;
77868;SDS011;67231;59.144;37.934;2023-07-08T13:44:16;3.70;;;2.45;;
77868;SDS011;67231;59.144;37.934;2023-07-08T13:46:50;5.00;;;2.50;;
77868;SDS011;67231;59.144;37.934;2023-07-08T13:54:39;14.35;;;6.60;;
77868;SDS011;67231;59.144;37.934;2023-07-08T13:57:16;8.30;;;4.13;;
77868;SDS011;67231;59.144;37.934;2023-07-08T13:59:45;11.15;;;4.63;;
77868;SDS011;67231;59.144;37.934;2023-07-08T14:02:22;10.48;;;4.30;;
77868;SDS011;67231;59.144;37.934;2023-07-08T14:04:51;14.05;;;4.65;;
77868;SDS011;67231;59.144;37.934;2023-07-08T14:07:20;26.25;;;8.05;;
77868;SDS011;67231;59.144;37.934;2023-07-08T14:09:47;18.10;;;5.20;;
77868;SDS011;67231;59.144;37.934;2023-07-08T14:12:14;9.05;;;4.22;;
77868;SDS011;67231;59.144;37.934;2023-07-08T14:14:40;11.85;;;5.47;;
77868;SDS011;67231;59.144;37.934;2023-07-08T14:17:40;13.82;;;4.97;;
77868;SDS011;67231;59.144;37.934;2023-07-08T14:20:00;15.20;;;6.25;;
77868;SDS011;67231;59.144;37.934;2023-07-08T14:22:28;11.85;;;5.43;;
77868;SDS011;67231;59.144;37.934;2023-07-08T14:24:58;14.52;;;7.15;;
77868;SDS011;67231;59.144;37.934;2023-07-08T14:27:31;12.13;;;5.43;;
77868;SDS011;67231;59.144;37.934;2023-07-08T14:29:57;9.85;;;4.90;;
77868;SDS011;67231;59.144;37.934;2023-07-08T14:32:27;10.25;;;3.65;;
77868;SDS011;67231;59.144;37.934;2023-07-08T14:35:09;8.02;;;3.60;;
77868;SDS011;67231;59.144;37.934;2023-07-08T14:37:38;14.10;;;4.70;;
77868;SDS011;67231;59.144;37.934;2023-07-08T14:40:22;13.55;;;5.95;;
77868;SDS011;67231;59.144;37.934;2023-07-08T14:43:04;15.63;;;7.60;;
77868;SDS011;67231;59.144;37.934;2023-07-08T14:45:53;68.68;;;9.10;;
77868;SDS011;67231;59.144;37.934;2023-07-08T14:48:21;11.48;;;5.82;;
77868;SDS011;67231;59.144;37.934;2023-07-08T14:50:49;11.27;;;5.63;;
77868;SDS011;67231;59.144;37.934;2023-07-08T14:53:16;11.57;;;5.20;;
77868;SDS011;67231;59.144;37.934;2023-07-08T14:55:47;17.73;;;7.00;;
77868;SDS011;67231;59.144;37.934;2023-07-08T14:58:21;13.55;;;5.25;;
77868;SDS011;67231;59.144;37.934;2023-07-08T15:00:51;8.10;;;4.10;;
77868;SDS011;67231;59.144;37.934;2023-07-08T15:03:19;6.65;;;3.70;;
77868;SDS011;67231;59.144;37.934;2023-07-08T15:05:45;5.57;;;3.53;;
77868;SDS011;67231;59.144;37.934;2023-07-08T15:08:11;6.95;;;3.65;;
77868;SDS011;67231;59.144;37.934;2023-07-08T15:10:44;12.60;;;4.95;;
77868;SDS011;67231;59.144;37.934;2023-07-08T15:13:14;18.33;;;5.25;;
77868;SDS011;67231;59.144;37.934;2023-07-08T15:15:42;17.10;;;6.97;;
77868;SDS011;67231;59.144;37.934;2023-07-08T15:18:14;21.10;;;9.82;;
77868;SDS011;67231;59.144;37.934;2023-07-08T15:20:46;19.70;;;8.60;;
77868;SDS011;67231;59.144;37.934;2023-07-08T15:23:13;16.83;;;8.02;;
77868;SDS011;67231;59.144;37.934;2023-07-08T15:25:43;15.75;;;5.88;;
77868;SDS011;67231;59.144;37.934;2023-07-08T15:28:25;12.75;;;4.60;;
77868;SDS011;67231;59.144;37.934;2023-07-08T15:31:02;14.05;;;5.80;;
77868;SDS011;67231;59.144;37.934;2023-07-08T15:33:29;15.70;;;5.78;;
77868;SDS011;67231;59.144;37.934;2023-07-08T15:35:55;19.52;;;8.65;;
77868;SDS011;67231;59.144;37.934;2023-07-08T15:38:22;18.15;;;7.88;;
77868;SDS011;67231;59.144;37.934;2023-07-08T15:40:48;18.20;;;7.75;;
77868;SDS011;67231;59.144;37.934;2023-07-08T15:43:14;18.40;;;5.60;;
77868;SDS011;67231;59.144;37.934;2023-07-08T15:45:41;13.82;;;6.78;;
77868;SDS011;67231;59.144;37.934;2023-07-08T15:48:12;11.30;;;4.70;;
77868;SDS011;67231;59.144;37.934;2023-07-08T15:50:42;12.55;;;6.82;;
77868;SDS011;67231;59.144;37.934;2023-07-08T15:53:09;11.93;;;6.07;;